createdAt,value
2019-03-28T00:02:20.303Z,72.66
2019-03-28T00:04:50.745Z,72.76
2019-03-28T00:07:23.904Z,72.72
2019-03-28T00:09:53.169Z,72.17
2019-03-28T00:12:23.446Z,72.77
2019-03-28T00:14:53.975Z,72.91
2019-03-28T00:17:24.667Z,73.62
2019-03-28T00:19:55.127Z,73.82
2019-03-28T00:22:34.943Z,73.63
2019-03-28T00:25:07.615Z,73.56
2019-03-28T00:27:37.984Z,73.20
2019-03-28T00:30:08.584Z,73.36
2019-03-28T00:32:39.067Z,72.28
2019-03-28T00:35:10.421Z,72.18
2019-03-28T00:37:41.153Z,71.71
2019-03-28T00:40:11.981Z,72.15
2019-03-28T00:42:42.554Z,72.27
2019-03-28T00:45:13.330Z,71.01
2019-03-28T00:47:43.972Z,71.88
2019-03-28T00:50:14.489Z,72.39
2019-03-28T00:52:45.136Z,72.24
2019-03-28T00:55:15.638Z,72.56
2019-03-28T00:57:46.244Z,73.31
2019-03-28T01:00:17.589Z,73.06
2019-03-28T01:02:48.697Z,73.02
2019-03-28T01:05:19.372Z,73.48
2019-03-28T01:07:49.822Z,73.05
2019-03-28T01:10:20.277Z,73.41
2019-03-28T01:12:51.122Z,73.26
2019-03-28T01:15:21.716Z,73.01
2019-03-28T01:17:52.743Z,73.62
2019-03-28T01:20:23.003Z,72.75
2019-03-28T01:22:53.318Z,73.38
2019-03-28T01:25:23.681Z,73.21
2019-03-28T01:27:54.033Z,73.21
2019-03-28T01:30:24.389Z,73.42
2019-03-28T01:32:54.951Z,73.10
2019-03-28T01:35:25.906Z,74.22
2019-03-28T01:37:56.302Z,73.49
2019-03-28T01:40:26.799Z,73.63
2019-03-28T01:42:57.169Z,74.22
2019-03-28T01:45:27.783Z,74.61
2019-03-28T01:47:58.241Z,73.25
2019-03-28T01:50:28.699Z,74.65
2019-03-28T01:52:59.270Z,74.07
2019-03-28T01:55:29.774Z,74.59
2019-03-28T01:58:00.161Z,74.91
2019-03-28T02:00:31.579Z,75.06
2019-03-28T02:03:02.318Z,75.21
2019-03-28T02:05:33.046Z,74.26
2019-03-28T02:08:03.837Z,74.52
2019-03-28T02:10:34.779Z,73.98
2019-03-28T02:13:05.552Z,74.85
2019-03-28T02:15:36.130Z,74.86
2019-03-28T02:18:06.567Z,74.74
2019-03-28T02:20:36.845Z,74.58
2019-03-28T02:23:07.472Z,74.73
2019-03-28T11:42:08.810Z,45.82
2019-03-28T11:44:39.569Z,45.79
2019-03-28T11:47:10.603Z,46.25
2019-03-28T11:49:41.420Z,46.89
2019-03-28T11:52:12.520Z,42.78
2019-03-28T11:54:43.191Z,44.19
2019-03-28T11:57:15.761Z,43.99
2019-03-28T11:59:46.394Z,44.06
2019-03-28T12:02:20.229Z,38.54
2019-03-28T12:04:49.583Z,44.74
2019-03-28T12:07:20.432Z,46.75
2019-03-28T12:09:51.882Z,47.25
2019-03-28T12:12:22.359Z,48.35
2019-03-28T12:14:54.307Z,44.35
2019-03-28T12:17:26.616Z,42.33
2019-03-28T12:19:57.290Z,41.44
2019-03-28T12:22:28.145Z,42.63
2019-03-28T12:24:58.536Z,40.87
2019-03-28T12:27:29.411Z,43.38
2019-03-28T12:30:02.044Z,43.48
2019-03-28T12:32:35.078Z,40.74
2019-03-28T12:35:06.543Z,37.94
2019-03-28T12:37:37.406Z,38.60
2019-03-28T12:40:08.685Z,38.85
2019-03-28T12:42:39.453Z,36.98
2019-03-28T12:45:10.485Z,38.09
2019-03-28T12:47:43.131Z,36.28
2019-03-28T12:50:14.619Z,35.41
2019-03-28T12:52:45.239Z,38.05
2019-03-28T12:55:16.114Z,38.13
2019-03-28T12:57:48.431Z,37.31
2019-03-28T13:00:32.591Z,36.81
2019-03-28T13:03:03.296Z,36.13
2019-03-28T13:05:34.936Z,35.36
2019-03-28T13:08:06.320Z,37.10
2019-03-28T13:10:37.053Z,33.95
2019-03-28T13:13:07.791Z,36.08
2019-03-28T13:15:39.595Z,34.83
2019-03-28T13:18:10.633Z,36.19
2019-03-28T13:20:41.588Z,36.69
2019-03-28T13:23:12.483Z,31.13
2019-03-28T13:25:42.995Z,34.34
2019-03-28T13:28:14.175Z,37.82
2019-03-28T13:30:45.172Z,39.41
2019-03-28T13:33:16.235Z,36.48
2019-03-28T13:35:47.216Z,38.93
2019-03-28T13:38:17.709Z,38.03
2019-03-28T13:40:49.256Z,35.50
2019-03-28T13:43:19.746Z,35.06
2019-03-28T13:45:51.121Z,32.17
2019-03-28T13:48:24.854Z,34.43
2019-03-28T13:50:55.661Z,35.38
2019-03-28T13:53:38.812Z,33.25
2019-03-28T13:55:58.834Z,29.69
2019-03-28T13:58:29.567Z,27.26
2019-03-28T14:01:00.382Z,27.05
2019-03-28T14:03:31.058Z,29.59
2019-03-28T14:06:02.016Z,29.12
2019-03-28T14:08:32.944Z,28.55
2019-03-28T14:11:04.005Z,26.59
2019-03-28T14:13:34.835Z,27.57
2019-03-28T14:16:05.363Z,29.60
2019-03-28T14:18:35.964Z,29.69
2019-03-28T14:21:06.791Z,28.69
2019-03-28T14:23:37.219Z,27.61
2019-03-28T14:26:10.678Z,29.03
2019-03-28T14:28:41.267Z,30.19
2019-03-28T14:31:12.069Z,31.70
2019-03-28T14:33:42.618Z,30.09
2019-03-28T14:36:13.510Z,32.03
2019-03-28T14:38:44.278Z,33.70
2019-03-28T14:41:14.778Z,35.78
2019-03-28T14:43:45.674Z,35.71
2019-03-28T14:46:16.202Z,31.42
2019-03-28T14:48:46.791Z,35.51
2019-03-28T14:51:17.752Z,36.89
2019-03-28T14:53:48.340Z,34.36
2019-03-28T14:56:18.965Z,33.88
2019-03-28T14:58:50.513Z,38.41
2019-03-28T15:01:21.091Z,36.75
2019-03-28T15:03:51.644Z,39.26
2019-03-28T15:06:22.281Z,37.03
2019-03-28T15:08:52.942Z,39.14
2019-03-28T15:11:23.567Z,37.29
2019-03-28T15:13:54.157Z,34.16
2019-03-28T15:16:24.682Z,39.36
2019-03-28T15:18:55.929Z,37.48
2019-03-28T15:21:27.316Z,37.81
2019-03-28T15:23:58.055Z,36.49
2019-03-28T15:26:30.235Z,37.01
2019-03-28T15:29:01.230Z,38.82
2019-03-28T15:31:33.713Z,38.08
2019-03-28T15:34:04.754Z,38.81
2019-03-28T15:36:35.577Z,38.23
2019-03-28T15:39:09.285Z,39.58
2019-03-28T15:41:40.219Z,39.16
2019-03-28T15:44:11.469Z,38.15
2019-03-28T15:46:41.862Z,38.13
2019-03-28T15:49:12.776Z,39.03
2019-03-28T15:51:43.447Z,40.42
2019-03-28T15:54:14.466Z,40.36
2019-03-28T15:56:45.131Z,40.72
2019-03-28T15:59:16.111Z,42.30
2019-03-28T16:01:47.700Z,42.52
2019-03-28T16:04:19.099Z,42.49
2019-03-28T16:06:50.048Z,43.58
2019-03-28T16:09:20.828Z,41.02
2019-03-28T16:12:02.058Z,41.97
2019-03-28T16:14:24.014Z,42.76
2019-03-28T16:16:56.862Z,42.57
2019-03-28T16:19:27.556Z,42.92
2019-03-28T16:21:58.010Z,43.05
2019-03-28T16:24:28.636Z,43.56
2019-03-28T16:26:59.218Z,44.50
2019-03-28T16:29:29.998Z,44.11
2019-03-28T16:32:01.337Z,45.80
2019-03-28T16:34:32.798Z,46.40
2019-03-28T16:37:03.543Z,46.59
2019-03-28T16:39:34.203Z,46.79
2019-03-28T16:42:05.036Z,47.33
2019-03-28T16:44:35.609Z,47.24
2019-03-28T16:47:06.913Z,48.32
2019-03-28T16:49:38.193Z,49.21
2019-03-28T16:52:09.118Z,48.82
2019-03-28T16:54:40.932Z,48.54
2019-03-28T16:57:11.799Z,48.35
2019-03-28T16:59:42.606Z,48.73
2019-03-28T17:02:16.590Z,48.07
2019-03-28T17:04:47.314Z,49.62
2019-03-28T17:07:18.726Z,48.68
2019-03-28T17:09:49.629Z,48.75
2019-03-28T17:12:20.761Z,47.70
2019-03-28T17:14:51.827Z,49.30
2019-03-28T17:17:23.156Z,50.09
2019-03-28T17:19:53.755Z,50.59
2019-03-28T17:22:24.280Z,50.33
2019-03-28T17:24:54.957Z,50.27
2019-03-28T17:27:25.994Z,50.12
2019-03-28T17:29:57.738Z,50.29
2019-03-28T17:32:28.857Z,50.45
2019-03-28T17:34:59.610Z,50.23
2019-03-28T17:37:33.581Z,51.56
2019-03-28T17:40:04.747Z,52.29
2019-03-28T17:42:35.352Z,51.53
2019-03-28T17:45:06.356Z,50.63
2019-03-28T17:47:38.263Z,51.92
2019-03-28T17:50:09.999Z,51.02
2019-03-28T17:52:41.448Z,52.32
2019-03-28T17:55:12.801Z,51.94
2019-03-28T17:57:43.799Z,51.43
2019-03-28T18:00:15.260Z,51.35
2019-03-28T18:02:46.192Z,50.21
2019-03-28T18:05:16.939Z,51.66
2019-03-28T18:07:47.708Z,48.52
2019-03-28T18:10:19.249Z,50.72
2019-03-28T18:12:50.172Z,50.26
2019-03-28T18:15:21.037Z,50.37
2019-03-28T18:17:51.975Z,49.62
2019-03-28T18:20:23.366Z,50.76
2019-03-28T18:22:54.269Z,50.43
2019-03-28T18:25:24.948Z,51.86
2019-03-28T18:27:55.795Z,51.54
2019-03-28T18:30:26.869Z,52.23
2019-03-28T18:32:57.601Z,51.76
2019-03-28T18:35:28.498Z,51.72
2019-03-28T18:37:59.109Z,52.54
2019-03-28T18:40:30.166Z,52.71
2019-03-28T18:43:01.665Z,52.86
2019-03-28T18:45:33.887Z,53.18
2019-03-28T18:48:04.498Z,54.56
2019-03-28T18:50:35.206Z,54.70
2019-03-28T18:53:06.236Z,54.68
2019-03-28T18:55:37.277Z,55.38
2019-03-28T18:58:08.041Z,55.77
2019-03-28T19:00:39.524Z,56.33
2019-03-28T19:03:10.085Z,57.12
2019-03-28T19:05:41.426Z,57.38
2019-03-28T19:08:11.879Z,57.76
2019-03-28T19:10:42.653Z,58.57
2019-03-28T19:13:15.969Z,59.00
2019-03-28T19:15:46.787Z,59.28
2019-03-28T19:18:17.105Z,59.53
2019-03-28T19:20:48.956Z,59.54
2019-03-28T19:23:19.392Z,59.87
2019-03-28T19:25:50.257Z,60.43
2019-03-28T19:28:28.612Z,60.51
2019-03-28T19:30:53.437Z,61.09
2019-03-28T19:33:24.361Z,61.60
2019-03-28T19:35:55.243Z,61.08
2019-03-28T19:38:26.140Z,61.71
2019-03-28T19:40:57.247Z,61.05
2019-03-28T19:43:28.355Z,61.68
2019-03-28T19:45:59.156Z,61.92
2019-03-28T19:48:29.754Z,62.13
2019-03-28T19:51:00.281Z,62.41
2019-03-28T19:53:35.258Z,62.08
2019-03-28T19:56:05.708Z,63.15
2019-03-28T19:58:36.103Z,62.58
2019-03-28T20:01:07.115Z,62.84
2019-03-28T20:03:37.805Z,63.14
2019-03-28T20:06:21.248Z,63.30
2019-03-28T20:08:41.501Z,63.31
2019-03-28T20:11:12.145Z,63.33
2019-03-28T20:13:43.009Z,63.28
2019-03-28T20:16:16.345Z,63.40
2019-03-28T20:18:49.384Z,63.44
2019-03-28T20:21:20.345Z,63.03
2019-03-28T20:23:51.126Z,63.58
2019-03-28T20:26:21.917Z,63.70
2019-03-28T20:28:52.395Z,63.69
2019-03-28T20:31:22.810Z,63.76
2019-03-28T20:33:53.344Z,63.15
2019-03-28T20:36:36.914Z,63.58
2019-03-28T20:39:03.897Z,63.66
2019-03-28T20:41:28.891Z,64.04
2019-03-28T20:43:59.692Z,63.93
2019-03-28T20:46:31.008Z,62.72
2019-03-28T20:49:01.923Z,63.73
2019-03-28T20:51:32.531Z,63.56
2019-03-28T20:54:03.714Z,63.49
2019-03-28T20:56:34.343Z,63.79
2019-03-28T20:59:05.260Z,63.34
2019-03-28T21:01:36.523Z,63.76
2019-03-28T21:04:07.849Z,63.29
2019-03-28T21:06:38.829Z,63.80
2019-03-28T21:09:09.651Z,63.88
2019-03-28T21:11:40.230Z,63.74
2019-03-28T21:14:11.059Z,63.71
2019-03-28T21:16:41.378Z,63.62
2019-03-28T21:19:12.369Z,63.71
2019-03-28T21:21:44.648Z,63.40
2019-03-28T21:24:15.552Z,63.02
2019-03-28T21:26:46.802Z,63.13
2019-03-28T21:29:17.534Z,61.85
2019-03-28T21:31:50.295Z,62.95
2019-03-28T21:34:22.394Z,63.32
2019-03-28T21:36:53.448Z,63.37
2019-03-28T21:39:24.354Z,63.09
2019-03-28T21:41:55.097Z,63.09
2019-03-28T21:44:26.188Z,63.18
2019-03-28T21:46:56.925Z,63.13
2019-03-28T21:49:27.260Z,62.88
2019-03-28T21:51:58.335Z,63.28
2019-03-28T21:54:29.256Z,63.31
2019-03-28T21:57:00.210Z,63.29
2019-03-28T21:59:30.916Z,63.24
2019-03-28T22:02:02.041Z,63.29
2019-03-28T22:04:32.908Z,62.59
2019-03-28T22:07:03.396Z,63.06
2019-03-28T22:09:34.003Z,63.18
2019-03-28T22:12:04.999Z,63.25
2019-03-28T22:14:35.868Z,63.25
2019-03-28T22:17:06.381Z,63.18
2019-03-28T22:19:38.357Z,62.93
2019-03-28T22:22:09.119Z,63.35
2019-03-28T22:24:40.043Z,63.65
2019-03-28T22:27:10.692Z,63.11
2019-03-28T22:29:41.550Z,63.53
2019-03-28T22:32:12.634Z,63.28
2019-03-28T22:34:43.345Z,64.14
2019-03-28T22:37:14.142Z,63.60
2019-03-28T22:39:44.799Z,64.01
2019-03-28T22:42:15.792Z,63.98
2019-03-28T22:44:46.586Z,63.97
2019-03-28T22:47:17.301Z,63.97
2019-03-28T22:49:47.637Z,63.77
2019-03-28T22:52:18.033Z,63.78
2019-03-28T22:54:48.755Z,64.06
2019-03-28T22:57:19.527Z,64.24
2019-03-28T22:59:50.192Z,64.40
2019-03-28T23:02:21.702Z,64.16
2019-03-28T23:04:52.415Z,64.21
2019-03-28T23:07:22.964Z,64.54
2019-03-28T23:09:54.022Z,63.84
2019-03-28T23:12:24.714Z,64.45
2019-03-28T23:14:55.595Z,64.64
2019-03-28T23:17:26.566Z,64.90
2019-03-28T23:19:57.285Z,64.99
2019-03-28T23:22:28.606Z,65.33
2019-03-28T23:24:59.221Z,65.56
2019-03-28T23:27:30.206Z,65.73
2019-03-28T23:30:02.916Z,66.04
2019-03-28T23:32:34.051Z,66.08
2019-03-28T23:35:05.302Z,66.17
2019-03-28T23:37:38.500Z,65.93
2019-03-28T23:40:10.082Z,66.36
2019-03-28T23:42:40.723Z,65.85
2019-03-28T23:45:12.793Z,65.64
2019-03-28T23:47:43.331Z,65.33
2019-03-28T23:50:13.958Z,64.90
2019-03-28T23:52:45.373Z,64.80
2019-03-28T23:55:15.956Z,64.53
2019-03-28T23:57:46.906Z,64.42
